sensor_id;sensor_type;location;lat;lon;timestamp;temperature;humidity
71801;HTU21D;59647;55.838;37.292;2023-07-09T00:00:46;16.22;76.37
71801;HTU21D;59647;55.838;37.292;2023-07-09T00:03:15;16.19;77.08
71801;HTU21D;59647;55.838;37.292;2023-07-09T00:05:42;16.16;76.95
71801;HTU21D;59647;55.838;37.292;2023-07-09T00:08:24;16.18;78.02
71801;HTU21D;59647;55.838;37.292;2023-07-09T00:10:53;16.13;76.97
71801;HTU21D;59647;55.838;37.292;2023-07-09T00:13:20;16.08;77.13
71801;HTU21D;59647;55.838;37.292;2023-07-09T00:15:46;16.04;77.13
71801;HTU21D;59647;55.838;37.292;2023-07-09T00:18:12;16.03;77.19
71801;HTU21D;59647;55.838;37.292;2023-07-09T00:20:37;16.00;77.25
71801;HTU21D;59647;55.838;37.292;2023-07-09T00:23:03;16.00;77.29
71801;HTU21D;59647;55.838;37.292;2023-07-09T00:25:30;16.00;77.31
71801;HTU21D;59647;55.838;37.292;2023-07-09T00:27:56;15.98;77.27
71801;HTU21D;59647;55.838;37.292;2023-07-09T00:30:23;15.96;77.14
71801;HTU21D;59647;55.838;37.292;2023-07-09T00:32:50;15.92;77.27
71801;HTU21D;59647;55.838;37.292;2023-07-09T00:35:18;15.89;77.93
71801;HTU21D;59647;55.838;37.292;2023-07-09T00:37:44;15.84;78.10
71801;HTU21D;59647;55.838;37.292;2023-07-09T00:40:16;15.82;78.73
71801;HTU21D;59647;55.838;37.292;2023-07-09T00:42:48;15.78;79.08
71801;HTU21D;59647;55.838;37.292;2023-07-09T00:48:02;15.74;78.95
71801;HTU21D;59647;55.838;37.292;2023-07-09T00:50:50;15.70;79.47
71801;HTU21D;59647;55.838;37.292;2023-07-09T00:53:22;15.65;79.40
71801;HTU21D;59647;55.838;37.292;2023-07-09T00:56:06;15.63;80.75
71801;HTU21D;59647;55.838;37.292;2023-07-09T00:58:37;15.60;80.04
71801;HTU21D;59647;55.838;37.292;2023-07-09T01:01:06;15.58;80.38
71801;HTU21D;59647;55.838;37.292;2023-07-09T01:03:38;15.55;80.41
71801;HTU21D;59647;55.838;37.292;2023-07-09T01:06:07;15.54;79.58
71801;HTU21D;59647;55.838;37.292;2023-07-09T01:08:35;15.54;80.49
71801;HTU21D;59647;55.838;37.292;2023-07-09T01:11:01;15.54;80.24
71801;HTU21D;59647;55.838;37.292;2023-07-09T01:13:29;15.56;80.36
71801;HTU21D;59647;55.838;37.292;2023-07-09T01:15:58;15.57;79.97
71801;HTU21D;59647;55.838;37.292;2023-07-09T01:18:25;15.61;79.68
71801;HTU21D;59647;55.838;37.292;2023-07-09T01:20:57;15.60;79.62
71801;HTU21D;59647;55.838;37.292;2023-07-09T01:23:26;15.59;79.62
71801;HTU21D;59647;55.838;37.292;2023-07-09T01:25:53;15.57;79.73
71801;HTU21D;59647;55.838;37.292;2023-07-09T01:28:20;15.54;80.07
71801;HTU21D;59647;55.838;37.292;2023-07-09T01:30:47;15.54;80.49
71801;HTU21D;59647;55.838;37.292;2023-07-09T01:33:15;15.54;80.29
71801;HTU21D;59647;55.838;37.292;2023-07-09T01:35:40;15.54;80.34
71801;HTU21D;59647;55.838;37.292;2023-07-09T01:38:08;15.57;80.45
71801;HTU21D;59647;55.838;37.292;2023-07-09T01:40:36;15.60;80.40
71801;HTU21D;59647;55.838;37.292;2023-07-09T01:43:03;15.63;80.47
71801;HTU21D;59647;55.838;37.292;2023-07-09T01:45:33;15.68;81.19
71801;HTU21D;59647;55.838;37.292;2023-07-09T01:48:02;15.73;80.57
71801;HTU21D;59647;55.838;37.292;2023-07-09T01:50:28;15.80;79.78
71801;HTU21D;59647;55.838;37.292;2023-07-09T01:52:57;15.81;79.72
71801;HTU21D;59647;55.838;37.292;2023-07-09T01:55:23;15.87;79.78
71801;HTU21D;59647;55.838;37.292;2023-07-09T01:57:50;15.96;79.53
71801;HTU21D;59647;55.838;37.292;2023-07-09T02:00:19;16.00;79.33
71801;HTU21D;59647;55.838;37.292;2023-07-09T02:02:48;16.07;79.04
71801;HTU21D;59647;55.838;37.292;2023-07-09T02:05:17;16.10;79.49
71801;HTU21D;59647;55.838;37.292;2023-07-09T02:07:46;16.10;79.58
71801;HTU21D;59647;55.838;37.292;2023-07-09T02:10:13;16.06;79.49
71801;HTU21D;59647;55.838;37.292;2023-07-09T02:12:40;16.07;79.35
71801;HTU21D;59647;55.838;37.292;2023-07-09T02:15:07;16.11;79.27
71801;HTU21D;59647;55.838;37.292;2023-07-09T02:17:33;16.14;79.21
71801;HTU21D;59647;55.838;37.292;2023-07-09T02:19:59;16.15;79.35
71801;HTU21D;59647;55.838;37.292;2023-07-09T02:22:25;16.16;79.59
71801;HTU21D;59647;55.838;37.292;2023-07-09T02:24:51;16.17;79.85
71801;HTU21D;59647;55.838;37.292;2023-07-09T02:27:20;16.22;80.29
71801;HTU21D;59647;55.838;37.292;2023-07-09T02:29:46;16.29;80.00
71801;HTU21D;59647;55.838;37.292;2023-07-09T02:32:21;16.34;80.51
71801;HTU21D;59647;55.838;37.292;2023-07-09T02:34:48;16.37;79.94
71801;HTU21D;59647;55.838;37.292;2023-07-09T02:37:16;16.43;79.90
71801;HTU21D;59647;55.838;37.292;2023-07-09T02:39:45;16.49;79.82
71801;HTU21D;59647;55.838;37.292;2023-07-09T02:42:13;16.58;79.84
71801;HTU21D;59647;55.838;37.292;2023-07-09T02:44:41;16.62;79.53
71801;HTU21D;59647;55.838;37.292;2023-07-09T02:47:07;16.79;78.54
71801;HTU21D;59647;55.838;37.292;2023-07-09T02:49:34;16.94;78.13
71801;HTU21D;59647;55.838;37.292;2023-07-09T02:52:01;17.01;78.73
71801;HTU21D;59647;55.838;37.292;2023-07-09T02:54:27;17.05;78.92
71801;HTU21D;59647;55.838;37.292;2023-07-09T02:56:53;17.10;78.80
71801;HTU21D;59647;55.838;37.292;2023-07-09T02:59:20;17.19;78.63
71801;HTU21D;59647;55.838;37.292;2023-07-09T03:01:46;17.24;78.42
71801;HTU21D;59647;55.838;37.292;2023-07-09T03:04:14;17.32;78.14
71801;HTU21D;59647;55.838;37.292;2023-07-09T03:06:40;17.35;78.53
71801;HTU21D;59647;55.838;37.292;2023-07-09T03:09:07;17.40;78.61
71801;HTU21D;59647;55.838;37.292;2023-07-09T03:11:34;17.48;78.75
71801;HTU21D;59647;55.838;37.292;2023-07-09T03:14:01;17.54;78.37
71801;HTU21D;59647;55.838;37.292;2023-07-09T03:16:29;17.62;78.34
71801;HTU21D;59647;55.838;37.292;2023-07-09T03:18:55;17.68;79.19
71801;HTU21D;59647;55.838;37.292;2023-07-09T03:21:22;17.76;78.70
71801;HTU21D;59647;55.838;37.292;2023-07-09T03:23:48;17.90;78.53
71801;HTU21D;59647;55.838;37.292;2023-07-09T03:26:14;18.03;78.69
71801;HTU21D;59647;55.838;37.292;2023-07-09T03:28:41;18.15;78.65
71801;HTU21D;59647;55.838;37.292;2023-07-09T03:31:07;18.27;78.45
71801;HTU21D;59647;55.838;37.292;2023-07-09T03:33:33;18.36;78.42
71801;HTU21D;59647;55.838;37.292;2023-07-09T03:35:59;18.43;78.63
71801;HTU21D;59647;55.838;37.292;2023-07-09T03:38:25;18.52;78.57
71801;HTU21D;59647;55.838;37.292;2023-07-09T03:40:52;18.59;78.42
71801;HTU21D;59647;55.838;37.292;2023-07-09T03:43:18;18.67;77.77
71801;HTU21D;59647;55.838;37.292;2023-07-09T03:45:45;18.83;77.40
71801;HTU21D;59647;55.838;37.292;2023-07-09T03:48:12;19.00;77.10
71801;HTU21D;59647;55.838;37.292;2023-07-09T03:50:38;19.16;77.02
71801;HTU21D;59647;55.838;37.292;2023-07-09T03:53:05;19.37;76.54
71801;HTU21D;59647;55.838;37.292;2023-07-09T03:55:33;19.53;76.22
71801;HTU21D;59647;55.838;37.292;2023-07-09T03:57:59;19.69;75.83
71801;HTU21D;59647;55.838;37.292;2023-07-09T04:00:25;19.81;75.65
71801;HTU21D;59647;55.838;37.292;2023-07-09T04:02:52;19.96;75.34
71801;HTU21D;59647;55.838;37.292;2023-07-09T04:05:18;20.14;75.12
71801;HTU21D;59647;55.838;37.292;2023-07-09T04:07:44;20.31;74.68
71801;HTU21D;59647;55.838;37.292;2023-07-09T04:10:10;20.50;74.47
71801;HTU21D;59647;55.838;37.292;2023-07-09T04:12:36;20.73;73.81
71801;HTU21D;59647;55.838;37.292;2023-07-09T04:15:05;20.92;72.99
71801;HTU21D;59647;55.838;37.292;2023-07-09T04:17:32;21.10;72.53
71801;HTU21D;59647;55.838;37.292;2023-07-09T04:19:58;21.25;72.13
71801;HTU21D;59647;55.838;37.292;2023-07-09T04:22:24;21.40;71.67
71801;HTU21D;59647;55.838;37.292;2023-07-09T04:24:50;21.54;71.19
71801;HTU21D;59647;55.838;37.292;2023-07-09T04:27:18;21.61;70.48
71801;HTU21D;59647;55.838;37.292;2023-07-09T04:29:44;21.73;70.68
71801;HTU21D;59647;55.838;37.292;2023-07-09T04:32:13;21.80;69.03
71801;HTU21D;59647;55.838;37.292;2023-07-09T04:34:40;21.92;69.61
71801;HTU21D;59647;55.838;37.292;2023-07-09T04:37:06;22.05;69.14
71801;HTU21D;59647;55.838;37.292;2023-07-09T04:39:33;22.19;68.97
71801;HTU21D;59647;55.838;37.292;2023-07-09T04:41:59;22.32;68.62
71801;HTU21D;59647;55.838;37.292;2023-07-09T04:44:25;22.40;68.04
71801;HTU21D;59647;55.838;37.292;2023-07-09T04:46:51;22.48;66.77
71801;HTU21D;59647;55.838;37.292;2023-07-09T04:49:17;22.57;67.20
71801;HTU21D;59647;55.838;37.292;2023-07-09T04:51:43;22.66;67.29
71801;HTU21D;59647;55.838;37.292;2023-07-09T04:54:17;22.72;66.73
71801;HTU21D;59647;55.838;37.292;2023-07-09T04:56:43;22.84;67.05
71801;HTU21D;59647;55.838;37.292;2023-07-09T04:59:12;22.90;66.56
71801;HTU21D;59647;55.838;37.292;2023-07-09T05:01:38;22.94;66.66
71801;HTU21D;59647;55.838;37.292;2023-07-09T05:04:04;23.05;66.76
71801;HTU21D;59647;55.838;37.292;2023-07-09T05:06:30;23.10;65.95
71801;HTU21D;59647;55.838;37.292;2023-07-09T05:08:56;23.17;66.39
71801;HTU21D;59647;55.838;37.292;2023-07-09T05:11:22;23.24;64.99
71801;HTU21D;59647;55.838;37.292;2023-07-09T05:13:48;23.26;65.62
71801;HTU21D;59647;55.838;37.292;2023-07-09T05:16:14;23.34;64.91
71801;HTU21D;59647;55.838;37.292;2023-07-09T05:18:39;23.38;65.11
71801;HTU21D;59647;55.838;37.292;2023-07-09T05:21:05;23.44;64.93
71801;HTU21D;59647;55.838;37.292;2023-07-09T05:23:31;23.57;64.06
71801;HTU21D;59647;55.838;37.292;2023-07-09T05:26:02;23.62;62.05
71801;HTU21D;59647;55.838;37.292;2023-07-09T05:28:29;23.75;63.40
71801;HTU21D;59647;55.838;37.292;2023-07-09T05:30:56;23.86;62.21
71801;HTU21D;59647;55.838;37.292;2023-07-09T05:33:22;23.97;62.97
71801;HTU21D;59647;55.838;37.292;2023-07-09T05:35:48;23.95;62.11
71801;HTU21D;59647;55.838;37.292;2023-07-09T05:38:14;23.90;60.57
71801;HTU21D;59647;55.838;37.292;2023-07-09T05:40:41;23.94;61.17
71801;HTU21D;59647;55.838;37.292;2023-07-09T05:43:08;24.09;59.88
71801;HTU21D;59647;55.838;37.292;2023-07-09T05:45:34;24.17;58.96
71801;HTU21D;59647;55.838;37.292;2023-07-09T05:48:01;24.31;60.11
71801;HTU21D;59647;55.838;37.292;2023-07-09T05:50:28;24.43;57.57
71801;HTU21D;59647;55.838;37.292;2023-07-09T05:52:54;24.60;58.60
71801;HTU21D;59647;55.838;37.292;2023-07-09T05:55:20;24.87;58.95
71801;HTU21D;59647;55.838;37.292;2023-07-09T05:57:46;25.05;58.82
71801;HTU21D;59647;55.838;37.292;2023-07-09T06:00:12;25.15;56.35
71801;HTU21D;59647;55.838;37.292;2023-07-09T06:02:43;25.24;57.20
71801;HTU21D;59647;55.838;37.292;2023-07-09T06:05:09;25.40;55.06
71801;HTU21D;59647;55.838;37.292;2023-07-09T06:07:38;25.51;53.98
71801;HTU21D;59647;55.838;37.292;2023-07-09T06:10:05;25.62;56.10
71801;HTU21D;59647;55.838;37.292;2023-07-09T06:12:32;25.76;54.96
71801;HTU21D;59647;55.838;37.292;2023-07-09T06:14:58;25.92;53.84
71801;HTU21D;59647;55.838;37.292;2023-07-09T06:17:24;26.11;52.80
71801;HTU21D;59647;55.838;37.292;2023-07-09T06:19:50;26.27;51.46
71801;HTU21D;59647;55.838;37.292;2023-07-09T06:22:15;26.28;51.75
71801;HTU21D;59647;55.838;37.292;2023-07-09T06:24:41;26.20;49.16
71801;HTU21D;59647;55.838;37.292;2023-07-09T06:27:09;26.31;47.02
71801;HTU21D;59647;55.838;37.292;2023-07-09T06:29:35;26.47;51.23
71801;HTU21D;59647;55.838;37.292;2023-07-09T06:32:01;26.47;50.59
71801;HTU21D;59647;55.838;37.292;2023-07-09T06:34:27;26.61;50.08
71801;HTU21D;59647;55.838;37.292;2023-07-09T06:36:52;26.76;50.04
71801;HTU21D;59647;55.838;37.292;2023-07-09T06:39:18;26.73;39.42
71801;HTU21D;59647;55.838;37.292;2023-07-09T06:41:48;26.69;46.93
71801;HTU21D;59647;55.838;37.292;2023-07-09T06:44:37;26.97;48.15
71801;HTU21D;59647;55.838;37.292;2023-07-09T06:47:03;27.39;47.21
71801;HTU21D;59647;55.838;37.292;2023-07-09T06:49:29;27.74;41.71
71801;HTU21D;59647;55.838;37.292;2023-07-09T06:51:54;27.76;47.09
71801;HTU21D;59647;55.838;37.292;2023-07-09T06:54:20;27.36;45.16
71801;HTU21D;59647;55.838;37.292;2023-07-09T06:56:46;27.22;39.11
71801;HTU21D;59647;55.838;37.292;2023-07-09T06:59:12;27.50;44.43
71801;HTU21D;59647;55.838;37.292;2023-07-09T07:01:38;27.91;39.72
71801;HTU21D;59647;55.838;37.292;2023-07-09T07:04:04;28.24;44.47
71801;HTU21D;59647;55.838;37.292;2023-07-09T07:06:30;28.27;43.82
71801;HTU21D;59647;55.838;37.292;2023-07-09T07:08:56;28.38;44.14
71801;HTU21D;59647;55.838;37.292;2023-07-09T07:11:22;27.81;42.00
71801;HTU21D;59647;55.838;37.292;2023-07-09T07:13:49;27.74;42.46
71801;HTU21D;59647;55.838;37.292;2023-07-09T07:16:17;27.80;41.49
71801;HTU21D;59647;55.838;37.292;2023-07-09T07:18:43;27.82;42.00
71801;HTU21D;59647;55.838;37.292;2023-07-09T07:21:09;27.66;41.63
71801;HTU21D;59647;55.838;37.292;2023-07-09T07:23:35;27.72;37.00
71801;HTU21D;59647;55.838;37.292;2023-07-09T07:26:01;27.78;41.33
71801;HTU21D;59647;55.838;37.292;2023-07-09T07:28:27;27.71;37.46
71801;HTU21D;59647;55.838;37.292;2023-07-09T07:31:05;27.83;38.01
71801;HTU21D;59647;55.838;37.292;2023-07-09T07:33:31;27.80;38.13
71801;HTU21D;59647;55.838;37.292;2023-07-09T07:35:57;27.75;39.42
71801;HTU21D;59647;55.838;37.292;2023-07-09T07:38:23;27.78;38.25
71801;HTU21D;59647;55.838;37.292;2023-07-09T07:40:49;27.97;34.37
71801;HTU21D;59647;55.838;37.292;2023-07-09T07:43:15;28.04;39.72
71801;HTU21D;59647;55.838;37.292;2023-07-09T07:45:42;28.27;38.39
71801;HTU21D;59647;55.838;37.292;2023-07-09T07:48:08;28.79;38.95
71801;HTU21D;59647;55.838;37.292;2023-07-09T07:50:35;0.00;0.00
71801;HTU21D;59647;55.838;37.292;2023-07-09T07:53:02;0.00;0.00
71801;HTU21D;59647;55.838;37.292;2023-07-09T07:55:28;0.00;0.00
71801;HTU21D;59647;55.838;37.292;2023-07-09T07:57:54;0.00;0.00
71801;HTU21D;59647;55.838;37.292;2023-07-09T08:00:22;0.00;0.00
71801;HTU21D;59647;55.838;37.292;2023-07-09T08:02:48;0.00;0.00
71801;HTU21D;59647;55.838;37.292;2023-07-09T08:05:14;0.00;0.00
71801;HTU21D;59647;55.838;37.292;2023-07-09T08:07:40;0.00;0.00
71801;HTU21D;59647;55.838;37.292;2023-07-09T08:10:07;0.00;0.00
71801;HTU21D;59647;55.838;37.292;2023-07-09T08:12:33;0.00;0.00
71801;HTU21D;59647;55.838;37.292;2023-07-09T08:14:59;0.00;0.00
71801;HTU21D;59647;55.838;37.292;2023-07-09T08:17:25;0.00;0.00
71801;HTU21D;59647;55.838;37.292;2023-07-09T08:19:52;0.00;0.00
71801;HTU21D;59647;55.838;37.292;2023-07-09T08:22:19;0.00;0.00
71801;HTU21D;59647;55.838;37.292;2023-07-09T08:24:51;0.00;0.00
71801;HTU21D;59647;55.838;37.292;2023-07-09T08:27:18;0.00;0.00
71801;HTU21D;59647;55.838;37.292;2023-07-09T08:29:44;0.00;0.00
71801;HTU21D;59647;55.838;37.292;2023-07-09T08:32:11;0.00;0.00
71801;HTU21D;59647;55.838;37.292;2023-07-09T08:34:39;0.00;0.00
71801;HTU21D;59647;55.838;37.292;2023-07-09T08:37:06;0.00;0.00
71801;HTU21D;59647;55.838;37.292;2023-07-09T08:39:32;0.00;0.00
71801;HTU21D;59647;55.838;37.292;2023-07-09T08:42:02;28.42;35.85
71801;HTU21D;59647;55.838;37.292;2023-07-09T08:50:16;28.86;33.64
71801;HTU21D;59647;55.838;37.292;2023-07-09T08:52:48;29.30;34.46
71801;HTU21D;59647;55.838;37.292;2023-07-09T08:55:26;29.29;33.40
71801;HTU21D;59647;55.838;37.292;2023-07-09T08:57:57;29.30;31.12
71801;HTU21D;59647;55.838;37.292;2023-07-09T09:00:34;29.60;32.80
71801;HTU21D;59647;55.838;37.292;2023-07-09T09:03:14;29.92;29.90
71801;HTU21D;59647;55.838;37.292;2023-07-09T09:05:45;29.76;30.45
71801;HTU21D;59647;55.838;37.292;2023-07-09T09:11:07;29.80;33.41
71801;HTU21D;59647;55.838;37.292;2023-07-09T09:13:36;29.57;33.71
71801;HTU21D;59647;55.838;37.292;2023-07-09T09:16:06;29.26;33.98
71801;HTU21D;59647;55.838;37.292;2023-07-09T09:18:41;28.77;31.72
71801;HTU21D;59647;55.838;37.292;2023-07-09T09:21:28;28.68;30.81
71801;HTU21D;59647;55.838;37.292;2023-07-09T09:23:58;28.82;33.31
71801;HTU21D;59647;55.838;37.292;2023-07-09T09:26:33;28.86;33.44
71801;HTU21D;59647;55.838;37.292;2023-07-09T09:29:00;28.49;33.92
71801;HTU21D;59647;55.838;37.292;2023-07-09T09:31:28;28.15;34.19
71801;HTU21D;59647;55.838;37.292;2023-07-09T09:33:55;27.87;33.68
71801;HTU21D;59647;55.838;37.292;2023-07-09T09:38:47;27.69;34.96
71801;HTU21D;59647;55.838;37.292;2023-07-09T09:41:17;27.56;35.03
71801;HTU21D;59647;55.838;37.292;2023-07-09T09:43:45;27.64;35.48
71801;HTU21D;59647;55.838;37.292;2023-07-09T09:46:24;27.67;33.62
71801;HTU21D;59647;55.838;37.292;2023-07-09T09:48:54;27.71;35.05
71801;HTU21D;59647;55.838;37.292;2023-07-09T09:51:23;28.12;35.18
71801;HTU21D;59647;55.838;37.292;2023-07-09T09:53:51;28.71;34.47
71801;HTU21D;59647;55.838;37.292;2023-07-09T09:56:23;29.11;33.92
71801;HTU21D;59647;55.838;37.292;2023-07-09T09:58:55;29.77;32.38
71801;HTU21D;59647;55.838;37.292;2023-07-09T10:01:29;0.00;0.00
71801;HTU21D;59647;55.838;37.292;2023-07-09T10:03:57;0.00;0.00
71801;HTU21D;59647;55.838;37.292;2023-07-09T10:06:45;0.00;0.00
71801;HTU21D;59647;55.838;37.292;2023-07-09T10:12:11;0.00;0.00
71801;HTU21D;59647;55.838;37.292;2023-07-09T10:17:36;0.00;0.00
71801;HTU21D;59647;55.838;37.292;2023-07-09T10:20:34;0.00;0.00
71801;HTU21D;59647;55.838;37.292;2023-07-09T10:26:18;0.00;0.00
71801;HTU21D;59647;55.838;37.292;2023-07-09T10:31:36;29.56;32.33
71801;HTU21D;59647;55.838;37.292;2023-07-09T10:39:26;29.54;31.77
71801;HTU21D;59647;55.838;37.292;2023-07-09T10:41:57;29.50;31.44
71801;HTU21D;59647;55.838;37.292;2023-07-09T10:44:36;29.45;31.35
71801;HTU21D;59647;55.838;37.292;2023-07-09T10:47:35;29.38;28.74
71801;HTU21D;59647;55.838;37.292;2023-07-09T10:50:04;29.24;29.01
71801;HTU21D;59647;55.838;37.292;2023-07-09T10:52:35;29.23;32.19
71801;HTU21D;59647;55.838;37.292;2023-07-09T10:55:21;28.92;31.85
71801;HTU21D;59647;55.838;37.292;2023-07-09T10:57:57;28.49;31.01
71801;HTU21D;59647;55.838;37.292;2023-07-09T11:00:36;28.27;32.35
71801;HTU21D;59647;55.838;37.292;2023-07-09T11:03:35;28.02;33.46
71801;HTU21D;59647;55.838;37.292;2023-07-09T11:06:09;27.88;33.83
71801;HTU21D;59647;55.838;37.292;2023-07-09T11:08:39;27.72;33.59
71801;HTU21D;59647;55.838;37.292;2023-07-09T11:11:10;27.61;33.45
71801;HTU21D;59647;55.838;37.292;2023-07-09T11:13:46;27.41;33.75
71801;HTU21D;59647;55.838;37.292;2023-07-09T11:16:27;27.20;33.65
71801;HTU21D;59647;55.838;37.292;2023-07-09T11:18:56;27.10;33.55
71801;HTU21D;59647;55.838;37.292;2023-07-09T11:21:23;27.06;34.05
71801;HTU21D;59647;55.838;37.292;2023-07-09T11:23:55;27.08;34.41
71801;HTU21D;59647;55.838;37.292;2023-07-09T11:28:54;27.08;33.94
71801;HTU21D;59647;55.838;37.292;2023-07-09T11:34:00;27.28;33.12
71801;HTU21D;59647;55.838;37.292;2023-07-09T11:36:29;27.57;34.22
71801;HTU21D;59647;55.838;37.292;2023-07-09T11:38:55;27.84;33.74
71801;HTU21D;59647;55.838;37.292;2023-07-09T11:41:40;28.45;33.09
71801;HTU21D;59647;55.838;37.292;2023-07-09T11:44:17;29.05;31.96
71801;HTU21D;59647;55.838;37.292;2023-07-09T11:49:31;28.89;29.83
71801;HTU21D;59647;55.838;37.292;2023-07-09T11:51:59;28.89;31.93
71801;HTU21D;59647;55.838;37.292;2023-07-09T11:54:26;28.87;31.90
71801;HTU21D;59647;55.838;37.292;2023-07-09T11:56:59;29.07;32.50
71801;HTU21D;59647;55.838;37.292;2023-07-09T11:59:27;29.01;32.44
71801;HTU21D;59647;55.838;37.292;2023-07-09T12:01:54;29.08;31.83
71801;HTU21D;59647;55.838;37.292;2023-07-09T12:04:27;28.79;32.02
71801;HTU21D;59647;55.838;37.292;2023-07-09T12:06:58;28.39;32.31
71801;HTU21D;59647;55.838;37.292;2023-07-09T12:09:32;28.09;32.28
71801;HTU21D;59647;55.838;37.292;2023-07-09T12:11:58;27.90;33.01
71801;HTU21D;59647;55.838;37.292;2023-07-09T12:14:23;27.59;33.57
71801;HTU21D;59647;55.838;37.292;2023-07-09T12:16:52;27.50;33.96
71801;HTU21D;59647;55.838;37.292;2023-07-09T12:19:20;27.50;33.57
71801;HTU21D;59647;55.838;37.292;2023-07-09T12:21:49;27.56;34.34
71801;HTU21D;59647;55.838;37.292;2023-07-09T12:24:36;27.76;34.63
71801;HTU21D;59647;55.838;37.292;2023-07-09T12:27:18;28.19;34.49
71801;HTU21D;59647;55.838;37.292;2023-07-09T12:29:44;28.17;34.24
71801;HTU21D;59647;55.838;37.292;2023-07-09T12:32:14;28.25;33.76
71801;HTU21D;59647;55.838;37.292;2023-07-09T12:34:41;28.16;33.41
71801;HTU21D;59647;55.838;37.292;2023-07-09T12:37:14;28.14;33.54
71801;HTU21D;59647;55.838;37.292;2023-07-09T12:39:42;28.18;33.99
71801;HTU21D;59647;55.838;37.292;2023-07-09T12:42:29;28.38;33.40
71801;HTU21D;59647;55.838;37.292;2023-07-09T12:44:55;28.43;31.07
71801;HTU21D;59647;55.838;37.292;2023-07-09T12:47:24;28.45;33.39
71801;HTU21D;59647;55.838;37.292;2023-07-09T12:49:50;28.30;32.69
71801;HTU21D;59647;55.838;37.292;2023-07-09T12:52:20;28.30;33.69
71801;HTU21D;59647;55.838;37.292;2023-07-09T12:54:56;28.17;33.16
71801;HTU21D;59647;55.838;37.292;2023-07-09T12:57:23;28.21;33.28
71801;HTU21D;59647;55.838;37.292;2023-07-09T12:59:49;28.21;33.21
71801;HTU21D;59647;55.838;37.292;2023-07-09T13:02:23;28.49;33.79
71801;HTU21D;59647;55.838;37.292;2023-07-09T13:04:50;28.78;33.73
71801;HTU21D;59647;55.838;37.292;2023-07-09T13:09:51;29.04;31.94
71801;HTU21D;59647;55.838;37.292;2023-07-09T13:12:18;28.88;31.74
71801;HTU21D;59647;55.838;37.292;2023-07-09T13:14:53;28.73;32.83
71801;HTU21D;59647;55.838;37.292;2023-07-09T13:17:19;28.85;33.32
71801;HTU21D;59647;55.838;37.292;2023-07-09T13:19:45;29.15;33.32
71801;HTU21D;59647;55.838;37.292;2023-07-09T13:22:16;29.32;33.15
71801;HTU21D;59647;55.838;37.292;2023-07-09T13:24:43;29.30;32.80
71801;HTU21D;59647;55.838;37.292;2023-07-09T13:27:12;29.20;32.83
71801;HTU21D;59647;55.838;37.292;2023-07-09T13:29:39;29.01;32.70
71801;HTU21D;59647;55.838;37.292;2023-07-09T13:32:15;28.98;32.48
71801;HTU21D;59647;55.838;37.292;2023-07-09T13:34:42;28.74;32.52
71801;HTU21D;59647;55.838;37.292;2023-07-09T13:37:14;28.82;33.18
71801;HTU21D;59647;55.838;37.292;2023-07-09T13:39:41;28.93;32.79
71801;HTU21D;59647;55.838;37.292;2023-07-09T13:42:13;29.30;33.01
71801;HTU21D;59647;55.838;37.292;2023-07-09T13:44:41;29.74;32.60
71801;HTU21D;59647;55.838;37.292;2023-07-09T13:47:16;29.77;30.01
71801;HTU21D;59647;55.838;37.292;2023-07-09T13:49:44;29.62;30.66
71801;HTU21D;59647;55.838;37.292;2023-07-09T13:52:17;29.96;31.09
71801;HTU21D;59647;55.838;37.292;2023-07-09T13:54:43;30.39;31.97
71801;HTU21D;59647;55.838;37.292;2023-07-09T13:57:16;30.77;31.23
71801;HTU21D;59647;55.838;37.292;2023-07-09T13:59:42;30.94;30.64
71801;HTU21D;59647;55.838;37.292;2023-07-09T14:02:34;31.11;28.47
71801;HTU21D;59647;55.838;37.292;2023-07-09T14:05:03;31.16;28.87
71801;HTU21D;59647;55.838;37.292;2023-07-09T14:07:34;30.85;29.71
71801;HTU21D;59647;55.838;37.292;2023-07-09T14:10:03;29.88;30.45
71801;HTU21D;59647;55.838;37.292;2023-07-09T14:12:32;29.36;31.28
71801;HTU21D;59647;55.838;37.292;2023-07-09T14:15:01;28.82;31.51
71801;HTU21D;59647;55.838;37.292;2023-07-09T14:17:32;28.37;32.29
71801;HTU21D;59647;55.838;37.292;2023-07-09T14:19:58;27.93;32.63
71801;HTU21D;59647;55.838;37.292;2023-07-09T14:22:36;27.55;33.68
71801;HTU21D;59647;55.838;37.292;2023-07-09T14:25:04;27.45;33.68
71801;HTU21D;59647;55.838;37.292;2023-07-09T14:27:31;27.28;33.93
71801;HTU21D;59647;55.838;37.292;2023-07-09T14:29:57;27.14;34.16
71801;HTU21D;59647;55.838;37.292;2023-07-09T14:32:34;26.99;34.53
71801;HTU21D;59647;55.838;37.292;2023-07-09T14:35:05;26.99;34.77
71801;HTU21D;59647;55.838;37.292;2023-07-09T14:37:35;27.06;34.80
71801;HTU21D;59647;55.838;37.292;2023-07-09T14:40:00;26.94;35.07
71801;HTU21D;59647;55.838;37.292;2023-07-09T14:42:29;26.98;35.04
71801;HTU21D;59647;55.838;37.292;2023-07-09T14:44:55;26.91;35.21
71801;HTU21D;59647;55.838;37.292;2023-07-09T14:47:21;26.91;35.54
71801;HTU21D;59647;55.838;37.292;2023-07-09T14:49:48;27.04;35.53
71801;HTU21D;59647;55.838;37.292;2023-07-09T14:52:18;26.95;34.79
71801;HTU21D;59647;55.838;37.292;2023-07-09T14:54:45;26.79;34.95
71801;HTU21D;59647;55.838;37.292;2023-07-09T14:57:22;26.80;35.15
71801;HTU21D;59647;55.838;37.292;2023-07-09T14:59:50;26.69;35.41
71801;HTU21D;59647;55.838;37.292;2023-07-09T15:02:37;26.77;35.78
71801;HTU21D;59647;55.838;37.292;2023-07-09T15:05:15;26.80;35.54
71801;HTU21D;59647;55.838;37.292;2023-07-09T15:08:18;26.71;35.73
71801;HTU21D;59647;55.838;37.292;2023-07-09T15:10:45;26.58;35.79
71801;HTU21D;59647;55.838;37.292;2023-07-09T15:13:21;26.51;36.11
71801;HTU21D;59647;55.838;37.292;2023-07-09T15:15:51;26.46;36.20
71801;HTU21D;59647;55.838;37.292;2023-07-09T15:18:17;26.46;36.27
71801;HTU21D;59647;55.838;37.292;2023-07-09T15:20:48;26.35;36.26
71801;HTU21D;59647;55.838;37.292;2023-07-09T15:23:14;26.32;36.47
71801;HTU21D;59647;55.838;37.292;2023-07-09T15:25:40;26.19;37.03
71801;HTU21D;59647;55.838;37.292;2023-07-09T15:28:10;26.07;37.91
71801;HTU21D;59647;55.838;37.292;2023-07-09T15:30:36;26.06;37.17
71801;HTU21D;59647;55.838;37.292;2023-07-09T15:33:03;25.90;37.44
71801;HTU21D;59647;55.838;37.292;2023-07-09T15:35:32;25.86;37.82
71801;HTU21D;59647;55.838;37.292;2023-07-09T15:37:59;25.83;37.80
71801;HTU21D;59647;55.838;37.292;2023-07-09T15:40:30;25.68;38.41
71801;HTU21D;59647;55.838;37.292;2023-07-09T15:43:04;25.61;38.49
71801;HTU21D;59647;55.838;37.292;2023-07-09T15:45:39;25.52;38.65
71801;HTU21D;59647;55.838;37.292;2023-07-09T15:48:06;25.46;39.46
71801;HTU21D;59647;55.838;37.292;2023-07-09T15:50:34;25.42;39.95
71801;HTU21D;59647;55.838;37.292;2023-07-09T15:53:00;25.45;38.77
71801;HTU21D;59647;55.838;37.292;2023-07-09T15:55:27;25.36;38.89
71801;HTU21D;59647;55.838;37.292;2023-07-09T15:57:54;25.32;38.96